Airfield :
LOGIN :

Register | Disclaimer

   EN    FR    IT 

 










Legend :    VFR   Marginal VFR   IFR   Intensive IFR   Very Intensive IFR
Visi :
Ceiling :
>= 8 km
>= 3000ft
5 to 8 km
1000 to 3000 ft
1500m to 5 km
500 to 1000 ft
800 to 1500m
200 to 500 ft
< 800m
< 200 ft
Symbols :   Thunderstorms  Fog  Heavy snow  Heavy precipitations  Wind > 20 kt
SIGMETs :     Misc.  Thunderstorms  Icing  Turbulence  Mountain Waves  Volcanic Ashes






- Airport Elevation : 856 ft
- IATA code : VGO


LEVX - Vigo Peinador

CURRENT METAR :
  • 220130Z 28003KT 240V320 9999 FEW020 14/12 Q1018 NOSIG

EXPIRED METARs :
  • 220100Z 31003KT 280V340 9999 FEW020 14/12 Q1018 NOSIG
  • 220030Z 36004KT 310V040 9999 SCT020 BKN035 14/12 Q1018 NOSIG
  • 220000Z 02003KT 340V060 9999 SCT014 BKN035 15/13 Q1018 NOSIG
  • 212330Z VRB02KT 9999 BKN014 BKN023 15/13 Q1018 NOSIG
  • 212300Z 36003KT 330V030 9999 BKN013 BKN041 15/14 Q1018 NOSIG

TAF TAF LEVX
Valid from the 22 at 00:00 until the 23 at 00:00 UTC


212300Z 2200/2224 33009KT 9999 FEW010 SCT020 TX20/2215Z TN12/2206Z
PROB30
TEMPO 2200/2208 3000 RA BR BKN010
PROB30
TEMPO 2200/2208 0800 BCFG BKN001 BKN005
PROB40
TEMPO 2211/2219 01015G25KT



MET'MAP, your aeronautical weather chart ! - Copyright ORBIFLY December 2007 - Disclaimer

ORBIFLY MET'MAP TEAM :

Programming & Development : Alexandra Zaïnal
Concept & original design : Baudouin d'Aumeries
Assistance for programming : Marc-Olivier Méhu
Technical & hardware support : Manuel Goepfert

Contact : metmap@orbifly.com




SOURCES & CREDITS :

   NOAA